sensor_id;sensor_type;location;lat;lon;timestamp;temperature;humidity
72772;SHT30;60894;42.544;1.516;2023-06-26T00:01:28;22.56;47.84
72772;SHT30;60894;42.544;1.516;2023-06-26T00:03:58;22.59;48.99
72772;SHT30;60894;42.544;1.516;2023-06-26T00:06:25;22.31;48.64
72772;SHT30;60894;42.544;1.516;2023-06-26T00:08:52;22.45;48.79
72772;SHT30;60894;42.544;1.516;2023-06-26T00:11:19;22.57;49.59
72772;SHT30;60894;42.544;1.516;2023-06-26T00:13:48;22.53;48.60
72772;SHT30;60894;42.544;1.516;2023-06-26T00:16:15;22.19;48.39
72772;SHT30;60894;42.544;1.516;2023-06-26T00:18:44;22.23;49.10
72772;SHT30;60894;42.544;1.516;2023-06-26T00:21:11;22.25;49.76
72772;SHT30;60894;42.544;1.516;2023-06-26T00:23:37;22.05;50.56
72772;SHT30;60894;42.544;1.516;2023-06-26T00:26:04;22.00;50.43
72772;SHT30;60894;42.544;1.516;2023-06-26T00:28:31;22.11;50.05
72772;SHT30;60894;42.544;1.516;2023-06-26T00:31:00;21.94;50.38
72772;SHT30;60894;42.544;1.516;2023-06-26T00:33:27;22.05;50.13
72772;SHT30;60894;42.544;1.516;2023-06-26T00:35:53;22.02;50.03
72772;SHT30;60894;42.544;1.516;2023-06-26T00:38:20;22.02;49.19
72772;SHT30;60894;42.544;1.516;2023-06-26T00:40:47;21.65;50.96
72772;SHT30;60894;42.544;1.516;2023-06-26T00:43:14;21.87;50.91
72772;SHT30;60894;42.544;1.516;2023-06-26T00:45:41;21.67;50.91
72772;SHT30;60894;42.544;1.516;2023-06-26T00:48:10;21.70;50.35
72772;SHT30;60894;42.544;1.516;2023-06-26T00:50:38;21.63;50.48
72772;SHT30;60894;42.544;1.516;2023-06-26T00:53:05;21.61;50.68
72772;SHT30;60894;42.544;1.516;2023-06-26T00:55:32;21.58;50.40
72772;SHT30;60894;42.544;1.516;2023-06-26T00:57:59;21.67;50.82
72772;SHT30;60894;42.544;1.516;2023-06-26T01:00:26;21.70;51.73
72772;SHT30;60894;42.544;1.516;2023-06-26T01:02:54;21.61;50.94
72772;SHT30;60894;42.544;1.516;2023-06-26T01:05:26;21.67;51.73
72772;SHT30;60894;42.544;1.516;2023-06-26T01:07:54;21.53;51.21
72772;SHT30;60894;42.544;1.516;2023-06-26T01:10:22;21.70;51.37
72772;SHT30;60894;42.544;1.516;2023-06-26T01:12:49;21.71;50.57
72772;SHT30;60894;42.544;1.516;2023-06-26T01:15:16;21.55;50.57
72772;SHT30;60894;42.544;1.516;2023-06-26T01:17:43;21.53;50.64
72772;SHT30;60894;42.544;1.516;2023-06-26T01:20:13;21.58;51.43
72772;SHT30;60894;42.544;1.516;2023-06-26T01:22:48;21.68;51.51
72772;SHT30;60894;42.544;1.516;2023-06-26T01:25:29;21.74;50.02
72772;SHT30;60894;42.544;1.516;2023-06-26T01:28:06;21.74;50.21
72772;SHT30;60894;42.544;1.516;2023-06-26T01:30:35;21.80;49.11
72772;SHT30;60894;42.544;1.516;2023-06-26T01:33:03;21.57;50.19
72772;SHT30;60894;42.544;1.516;2023-06-26T01:35:30;21.64;49.71
72772;SHT30;60894;42.544;1.516;2023-06-26T01:38:11;21.57;50.00
72772;SHT30;60894;42.544;1.516;2023-06-26T01:40:38;21.60;49.48
72772;SHT30;60894;42.544;1.516;2023-06-26T01:43:09;21.27;50.52
72772;SHT30;60894;42.544;1.516;2023-06-26T01:45:39;21.29;52.71
72772;SHT30;60894;42.544;1.516;2023-06-26T01:48:06;21.24;52.04
72772;SHT30;60894;42.544;1.516;2023-06-26T01:50:35;20.73;51.81
72772;SHT30;60894;42.544;1.516;2023-06-26T01:53:06;21.13;53.17
72772;SHT30;60894;42.544;1.516;2023-06-26T01:55:41;21.07;52.33
72772;SHT30;60894;42.544;1.516;2023-06-26T01:58:13;20.64;52.67
72772;SHT30;60894;42.544;1.516;2023-06-26T02:00:42;21.14;52.99
72772;SHT30;60894;42.544;1.516;2023-06-26T02:03:09;21.39;51.62
72772;SHT30;60894;42.544;1.516;2023-06-26T02:05:36;21.20;51.50
72772;SHT30;60894;42.544;1.516;2023-06-26T02:08:03;21.20;51.51
72772;SHT30;60894;42.544;1.516;2023-06-26T02:10:30;21.46;50.86
72772;SHT30;60894;42.544;1.516;2023-06-26T02:12:57;20.81;51.79
72772;SHT30;60894;42.544;1.516;2023-06-26T02:15:26;20.96;51.55
72772;SHT30;60894;42.544;1.516;2023-06-26T02:17:52;21.29;51.57
72772;SHT30;60894;42.544;1.516;2023-06-26T02:20:19;20.85;51.96
72772;SHT30;60894;42.544;1.516;2023-06-26T02:22:46;20.72;52.40
72772;SHT30;60894;42.544;1.516;2023-06-26T02:25:13;20.88;52.66
72772;SHT30;60894;42.544;1.516;2023-06-26T02:27:40;20.42;53.08
72772;SHT30;60894;42.544;1.516;2023-06-26T02:30:08;20.27;53.49
72772;SHT30;60894;42.544;1.516;2023-06-26T02:32:37;19.89;54.45
72772;SHT30;60894;42.544;1.516;2023-06-26T02:35:05;19.74;55.07
72772;SHT30;60894;42.544;1.516;2023-06-26T02:37:32;19.53;55.67
72772;SHT30;60894;42.544;1.516;2023-06-26T02:39:59;19.56;55.71
72772;SHT30;60894;42.544;1.516;2023-06-26T02:42:25;20.09;55.05
72772;SHT30;60894;42.544;1.516;2023-06-26T02:44:52;20.34;54.25
72772;SHT30;60894;42.544;1.516;2023-06-26T02:47:20;20.00;54.08
72772;SHT30;60894;42.544;1.516;2023-06-26T02:49:48;20.44;54.01
72772;SHT30;60894;42.544;1.516;2023-06-26T02:52:15;20.24;53.76
72772;SHT30;60894;42.544;1.516;2023-06-26T02:54:42;20.34;53.87
72772;SHT30;60894;42.544;1.516;2023-06-26T02:57:08;20.11;54.15
72772;SHT30;60894;42.544;1.516;2023-06-26T02:59:35;20.35;54.18
72772;SHT30;60894;42.544;1.516;2023-06-26T03:02:02;20.32;53.50
72772;SHT30;60894;42.544;1.516;2023-06-26T03:04:29;20.45;53.68
72772;SHT30;60894;42.544;1.516;2023-06-26T03:06:58;20.48;53.14
72772;SHT30;60894;42.544;1.516;2023-06-26T03:09:24;20.04;54.28
72772;SHT30;60894;42.544;1.516;2023-06-26T03:11:51;19.60;55.15
72772;SHT30;60894;42.544;1.516;2023-06-26T03:14:18;19.21;56.37
72772;SHT30;60894;42.544;1.516;2023-06-26T03:16:45;19.02;56.93
72772;SHT30;60894;42.544;1.516;2023-06-26T03:19:12;19.10;56.98
72772;SHT30;60894;42.544;1.516;2023-06-26T03:21:39;18.98;57.37
72772;SHT30;60894;42.544;1.516;2023-06-26T03:24:07;18.80;57.85
72772;SHT30;60894;42.544;1.516;2023-06-26T03:26:34;18.75;58.19
72772;SHT30;60894;42.544;1.516;2023-06-26T03:29:01;18.75;58.17
72772;SHT30;60894;42.544;1.516;2023-06-26T03:31:28;18.71;58.45
72772;SHT30;60894;42.544;1.516;2023-06-26T03:33:55;18.84;58.32
72772;SHT30;60894;42.544;1.516;2023-06-26T03:36:22;18.64;58.45
72772;SHT30;60894;42.544;1.516;2023-06-26T03:38:49;18.60;58.71
72772;SHT30;60894;42.544;1.516;2023-06-26T03:41:18;18.57;58.83
72772;SHT30;60894;42.544;1.516;2023-06-26T03:43:45;18.39;59.38
72772;SHT30;60894;42.544;1.516;2023-06-26T03:46:11;18.25;59.19
72772;SHT30;60894;42.544;1.516;2023-06-26T03:48:38;18.19;59.80
72772;SHT30;60894;42.544;1.516;2023-06-26T03:51:06;18.02;60.41
72772;SHT30;60894;42.544;1.516;2023-06-26T03:53:33;18.00;60.17
72772;SHT30;60894;42.544;1.516;2023-06-26T03:56:00;18.13;59.96
72772;SHT30;60894;42.544;1.516;2023-06-26T03:58:28;18.12;60.27
72772;SHT30;60894;42.544;1.516;2023-06-26T04:00:55;18.12;60.20
72772;SHT30;60894;42.544;1.516;2023-06-26T04:03:23;17.98;60.33
72772;SHT30;60894;42.544;1.516;2023-06-26T04:05:50;17.89;60.68
72772;SHT30;60894;42.544;1.516;2023-06-26T04:08:17;17.92;60.61
72772;SHT30;60894;42.544;1.516;2023-06-26T04:10:45;17.79;61.18
72772;SHT30;60894;42.544;1.516;2023-06-26T04:13:14;17.95;60.72
72772;SHT30;60894;42.544;1.516;2023-06-26T04:15:42;17.77;61.49
72772;SHT30;60894;42.544;1.516;2023-06-26T04:18:09;17.95;60.34
72772;SHT30;60894;42.544;1.516;2023-06-26T04:20:38;17.93;60.69
72772;SHT30;60894;42.544;1.516;2023-06-26T04:23:05;17.95;60.50
72772;SHT30;60894;42.544;1.516;2023-06-26T04:25:32;17.68;60.95
72772;SHT30;60894;42.544;1.516;2023-06-26T04:27:59;17.58;61.68
72772;SHT30;60894;42.544;1.516;2023-06-26T04:30:26;17.42;62.26
72772;SHT30;60894;42.544;1.516;2023-06-26T04:32:55;17.35;62.56
72772;SHT30;60894;42.544;1.516;2023-06-26T04:35:24;17.59;61.99
72772;SHT30;60894;42.544;1.516;2023-06-26T04:37:51;17.82;61.38
72772;SHT30;60894;42.544;1.516;2023-06-26T04:40:18;17.82;61.15
72772;SHT30;60894;42.544;1.516;2023-06-26T04:42:45;17.86;61.15
72772;SHT30;60894;42.544;1.516;2023-06-26T04:45:12;17.69;61.36
72772;SHT30;60894;42.544;1.516;2023-06-26T04:47:38;17.89;60.89
72772;SHT30;60894;42.544;1.516;2023-06-26T04:50:08;17.89;60.78
72772;SHT30;60894;42.544;1.516;2023-06-26T04:52:35;17.61;61.83
72772;SHT30;60894;42.544;1.516;2023-06-26T04:55:02;17.58;61.85
72772;SHT30;60894;42.544;1.516;2023-06-26T04:57:29;17.52;61.71
72772;SHT30;60894;42.544;1.516;2023-06-26T04:59:56;17.38;62.59
72772;SHT30;60894;42.544;1.516;2023-06-26T05:02:23;17.35;62.93
72772;SHT30;60894;42.544;1.516;2023-06-26T05:04:52;17.58;61.99
72772;SHT30;60894;42.544;1.516;2023-06-26T05:07:20;17.79;61.59
72772;SHT30;60894;42.544;1.516;2023-06-26T05:09:47;17.75;61.20
72772;SHT30;60894;42.544;1.516;2023-06-26T05:12:14;17.85;61.05
72772;SHT30;60894;42.544;1.516;2023-06-26T05:14:41;17.77;61.51
72772;SHT30;60894;42.544;1.516;2023-06-26T05:17:08;17.83;61.32
72772;SHT30;60894;42.544;1.516;2023-06-26T05:19:35;17.62;61.56
72772;SHT30;60894;42.544;1.516;2023-06-26T05:22:03;17.58;62.05
72772;SHT30;60894;42.544;1.516;2023-06-26T05:24:35;17.67;61.85
72772;SHT30;60894;42.544;1.516;2023-06-26T05:27:03;17.71;61.94
72772;SHT30;60894;42.544;1.516;2023-06-26T05:29:31;17.61;62.13
72772;SHT30;60894;42.544;1.516;2023-06-26T05:31:59;17.50;62.67
72772;SHT30;60894;42.544;1.516;2023-06-26T05:34:27;17.64;62.27
72772;SHT30;60894;42.544;1.516;2023-06-26T05:36:58;17.65;61.89
72772;SHT30;60894;42.544;1.516;2023-06-26T05:39:25;17.58;62.32
72772;SHT30;60894;42.544;1.516;2023-06-26T05:41:54;17.59;62.54
72772;SHT30;60894;42.544;1.516;2023-06-26T05:44:21;17.45;62.57
72772;SHT30;60894;42.544;1.516;2023-06-26T05:46:48;17.51;62.45
72772;SHT30;60894;42.544;1.516;2023-06-26T05:49:15;17.68;62.61
72772;SHT30;60894;42.544;1.516;2023-06-26T05:51:43;17.78;62.15
72772;SHT30;60894;42.544;1.516;2023-06-26T05:54:11;17.78;61.93
72772;SHT30;60894;42.544;1.516;2023-06-26T05:56:39;17.85;61.89
72772;SHT30;60894;42.544;1.516;2023-06-26T05:59:08;17.95;61.83
72772;SHT30;60894;42.544;1.516;2023-06-26T06:01:35;18.06;61.32
72772;SHT30;60894;42.544;1.516;2023-06-26T06:04:02;18.10;61.32
72772;SHT30;60894;42.544;1.516;2023-06-26T06:06:29;17.99;61.38
72772;SHT30;60894;42.544;1.516;2023-06-26T06:08:56;18.17;61.01
72772;SHT30;60894;42.544;1.516;2023-06-26T06:11:23;18.40;60.73
72772;SHT30;60894;42.544;1.516;2023-06-26T06:13:49;18.43;61.03
72772;SHT30;60894;42.544;1.516;2023-06-26T06:16:19;18.61;60.49
72772;SHT30;60894;42.544;1.516;2023-06-26T06:18:46;18.71;60.35
72772;SHT30;60894;42.544;1.516;2023-06-26T06:21:13;18.81;59.48
72772;SHT30;60894;42.544;1.516;2023-06-26T06:23:40;18.88;59.86
72772;SHT30;60894;42.544;1.516;2023-06-26T06:26:07;18.95;59.16
72772;SHT30;60894;42.544;1.516;2023-06-26T06:28:34;18.98;58.71
72772;SHT30;60894;42.544;1.516;2023-06-26T06:31:01;19.16;58.57
72772;SHT30;60894;42.544;1.516;2023-06-26T06:33:29;19.21;58.21
72772;SHT30;60894;42.544;1.516;2023-06-26T06:35:56;19.22;57.79
72772;SHT30;60894;42.544;1.516;2023-06-26T06:38:23;19.19;57.61
72772;SHT30;60894;42.544;1.516;2023-06-26T06:40:50;19.32;57.18
72772;SHT30;60894;42.544;1.516;2023-06-26T06:43:17;19.42;57.42
72772;SHT30;60894;42.544;1.516;2023-06-26T06:45:45;19.52;57.53
72772;SHT30;60894;42.544;1.516;2023-06-26T06:48:12;19.70;57.09
72772;SHT30;60894;42.544;1.516;2023-06-26T06:50:40;19.80;56.37
72772;SHT30;60894;42.544;1.516;2023-06-26T06:53:07;19.89;56.97
72772;SHT30;60894;42.544;1.516;2023-06-26T06:55:34;19.98;55.78
72772;SHT30;60894;42.544;1.516;2023-06-26T06:58:01;20.07;55.36
72772;SHT30;60894;42.544;1.516;2023-06-26T07:00:28;20.01;55.44
72772;SHT30;60894;42.544;1.516;2023-06-26T07:02:57;20.16;54.74
72772;SHT30;60894;42.544;1.516;2023-06-26T07:05:25;20.21;54.90
72772;SHT30;60894;42.544;1.516;2023-06-26T07:07:53;20.34;54.55
72772;SHT30;60894;42.544;1.516;2023-06-26T07:10:20;20.45;53.97
72772;SHT30;60894;42.544;1.516;2023-06-26T07:12:47;20.51;54.40
72772;SHT30;60894;42.544;1.516;2023-06-26T07:15:14;20.61;54.49
72772;SHT30;60894;42.544;1.516;2023-06-26T07:17:41;20.71;54.26
72772;SHT30;60894;42.544;1.516;2023-06-26T07:20:09;20.72;52.75
72772;SHT30;60894;42.544;1.516;2023-06-26T07:22:41;20.81;53.82
72772;SHT30;60894;42.544;1.516;2023-06-26T07:25:09;20.91;53.20
72772;SHT30;60894;42.544;1.516;2023-06-26T07:27:36;20.99;52.79
72772;SHT30;60894;42.544;1.516;2023-06-26T07:30:04;21.10;52.33
72772;SHT30;60894;42.544;1.516;2023-06-26T07:32:31;21.18;51.30
72772;SHT30;60894;42.544;1.516;2023-06-26T07:34:58;21.24;49.76
72772;SHT30;60894;42.544;1.516;2023-06-26T07:37:24;21.34;50.30
72772;SHT30;60894;42.544;1.516;2023-06-26T07:39:51;21.43;51.31
72772;SHT30;60894;42.544;1.516;2023-06-26T07:42:20;21.54;52.33
72772;SHT30;60894;42.544;1.516;2023-06-26T07:44:47;21.64;50.95
72772;SHT30;60894;42.544;1.516;2023-06-26T07:47:14;21.74;50.95
72772;SHT30;60894;42.544;1.516;2023-06-26T07:49:42;21.78;50.98
72772;SHT30;60894;42.544;1.516;2023-06-26T07:52:08;21.85;49.70
72772;SHT30;60894;42.544;1.516;2023-06-26T07:54:36;21.95;50.28
72772;SHT30;60894;42.544;1.516;2023-06-26T07:57:04;22.05;51.10
72772;SHT30;60894;42.544;1.516;2023-06-26T07:59:34;22.18;50.33
72772;SHT30;60894;42.544;1.516;2023-06-26T08:02:01;22.31;48.43
72772;SHT30;60894;42.544;1.516;2023-06-26T08:04:29;22.36;50.43
72772;SHT30;60894;42.544;1.516;2023-06-26T08:06:58;22.36;49.32
72772;SHT30;60894;42.544;1.516;2023-06-26T08:09:27;22.43;49.09
72772;SHT30;60894;42.544;1.516;2023-06-26T08:11:54;22.62;47.94
72772;SHT30;60894;42.544;1.516;2023-06-26T08:14:21;22.74;47.87
72772;SHT30;60894;42.544;1.516;2023-06-26T08:16:50;22.86;47.34
72772;SHT30;60894;42.544;1.516;2023-06-26T08:19:17;22.94;47.12
72772;SHT30;60894;42.544;1.516;2023-06-26T08:21:46;22.99;46.94
72772;SHT30;60894;42.544;1.516;2023-06-26T08:24:13;23.07;47.52
72772;SHT30;60894;42.544;1.516;2023-06-26T08:26:41;23.18;47.68
72772;SHT30;60894;42.544;1.516;2023-06-26T08:29:08;23.33;47.30
72772;SHT30;60894;42.544;1.516;2023-06-26T08:31:36;23.47;45.93
72772;SHT30;60894;42.544;1.516;2023-06-26T08:34:04;23.62;46.02
72772;SHT30;60894;42.544;1.516;2023-06-26T08:36:31;23.85;46.14
72772;SHT30;60894;42.544;1.516;2023-06-26T08:38:59;24.03;45.14
72772;SHT30;60894;42.544;1.516;2023-06-26T08:41:26;24.17;44.98
72772;SHT30;60894;42.544;1.516;2023-06-26T08:43:53;24.26;44.13
72772;SHT30;60894;42.544;1.516;2023-06-26T08:46:20;24.33;44.20
72772;SHT30;60894;42.544;1.516;2023-06-26T08:48:49;24.47;44.05
72772;SHT30;60894;42.544;1.516;2023-06-26T08:51:24;24.64;43.60
72772;SHT30;60894;42.544;1.516;2023-06-26T08:53:56;24.81;43.07
72772;SHT30;60894;42.544;1.516;2023-06-26T08:56:24;24.92;42.32
72772;SHT30;60894;42.544;1.516;2023-06-26T08:58:53;25.11;42.44
72772;SHT30;60894;42.544;1.516;2023-06-26T09:01:20;25.26;41.93
72772;SHT30;60894;42.544;1.516;2023-06-26T09:03:49;25.46;41.57
72772;SHT30;60894;42.544;1.516;2023-06-26T09:06:16;25.59;41.27
72772;SHT30;60894;42.544;1.516;2023-06-26T09:08:45;25.80;41.12
72772;SHT30;60894;42.544;1.516;2023-06-26T09:11:12;25.97;39.83
72772;SHT30;60894;42.544;1.516;2023-06-26T09:13:39;26.10;40.43
72772;SHT30;60894;42.544;1.516;2023-06-26T09:16:07;26.34;39.64
72772;SHT30;60894;42.544;1.516;2023-06-26T09:18:34;26.40;39.72
72772;SHT30;60894;42.544;1.516;2023-06-26T09:21:06;26.58;39.37
72772;SHT30;60894;42.544;1.516;2023-06-26T09:23:33;26.67;38.64
72772;SHT30;60894;42.544;1.516;2023-06-26T09:26:05;26.86;39.10
72772;SHT30;60894;42.544;1.516;2023-06-26T09:28:32;27.05;37.64
72772;SHT30;60894;42.544;1.516;2023-06-26T09:31:03;27.20;37.02
72772;SHT30;60894;42.544;1.516;2023-06-26T09:33:33;27.39;35.99
72772;SHT30;60894;42.544;1.516;2023-06-26T09:36:04;27.50;35.89
72772;SHT30;60894;42.544;1.516;2023-06-26T09:38:31;27.74;35.79
72772;SHT30;60894;42.544;1.516;2023-06-26T09:40:58;27.74;35.55
72772;SHT30;60894;42.544;1.516;2023-06-26T09:43:27;27.83;34.69
72772;SHT30;60894;42.544;1.516;2023-06-26T09:45:54;27.97;35.10
72772;SHT30;60894;42.544;1.516;2023-06-26T09:48:21;28.06;35.29
72772;SHT30;60894;42.544;1.516;2023-06-26T09:50:48;28.29;35.31
72772;SHT30;60894;42.544;1.516;2023-06-26T09:53:15;28.34;33.45
72772;SHT30;60894;42.544;1.516;2023-06-26T09:55:44;28.42;33.86
72772;SHT30;60894;42.544;1.516;2023-06-26T09:58:12;28.53;33.52
72772;SHT30;60894;42.544;1.516;2023-06-26T10:00:42;28.70;33.12
72772;SHT30;60894;42.544;1.516;2023-06-26T10:03:10;28.86;32.78
72772;SHT30;60894;42.544;1.516;2023-06-26T10:05:38;28.72;32.18
72772;SHT30;60894;42.544;1.516;2023-06-26T10:08:05;29.06;32.92
72772;SHT30;60894;42.544;1.516;2023-06-26T10:10:34;29.14;32.44
72772;SHT30;60894;42.544;1.516;2023-06-26T10:13:07;29.25;32.03
72772;SHT30;60894;42.544;1.516;2023-06-26T10:15:36;29.30;31.33
72772;SHT30;60894;42.544;1.516;2023-06-26T10:18:05;29.41;31.91
72772;SHT30;60894;42.544;1.516;2023-06-26T10:20:32;29.53;31.16
72772;SHT30;60894;42.544;1.516;2023-06-26T10:23:01;29.68;31.29
72772;SHT30;60894;42.544;1.516;2023-06-26T10:25:29;29.95;30.99
72772;SHT30;60894;42.544;1.516;2023-06-26T10:28:00;30.12;30.78
72772;SHT30;60894;42.544;1.516;2023-06-26T10:30:31;30.09;30.35
72772;SHT30;60894;42.544;1.516;2023-06-26T10:33:00;30.23;30.99
72772;SHT30;60894;42.544;1.516;2023-06-26T10:35:30;30.08;31.16
72772;SHT30;60894;42.544;1.516;2023-06-26T10:38:00;30.29;30.91
72772;SHT30;60894;42.544;1.516;2023-06-26T10:40:40;30.37;30.32
72772;SHT30;60894;42.544;1.516;2023-06-26T10:43:07;30.40;29.79
72772;SHT30;60894;42.544;1.516;2023-06-26T10:45:35;30.52;29.70
72772;SHT30;60894;42.544;1.516;2023-06-26T10:48:03;30.33;29.38
72772;SHT30;60894;42.544;1.516;2023-06-26T10:50:32;30.59;29.56
72772;SHT30;60894;42.544;1.516;2023-06-26T10:53:15;30.94;29.33
72772;SHT30;60894;42.544;1.516;2023-06-26T10:55:51;30.76;28.17
72772;SHT30;60894;42.544;1.516;2023-06-26T10:58:32;30.87;29.28
72772;SHT30;60894;42.544;1.516;2023-06-26T11:01:21;30.84;29.12
72772;SHT30;60894;42.544;1.516;2023-06-26T11:04:00;30.83;29.44
72772;SHT30;60894;42.544;1.516;2023-06-26T11:06:30;30.88;29.84
72772;SHT30;60894;42.544;1.516;2023-06-26T11:09:00;31.18;28.96
72772;SHT30;60894;42.544;1.516;2023-06-26T11:12:00;31.31;28.92
72772;SHT30;60894;42.544;1.516;2023-06-26T11:14:33;31.66;28.73
72772;SHT30;60894;42.544;1.516;2023-06-26T11:17:03;31.76;27.97
72772;SHT30;60894;42.544;1.516;2023-06-26T11:19:30;31.46;28.75
72772;SHT30;60894;42.544;1.516;2023-06-26T11:22:02;30.84;28.67
72772;SHT30;60894;42.544;1.516;2023-06-26T11:24:30;30.68;29.37
72772;SHT30;60894;42.544;1.516;2023-06-26T11:27:04;30.41;30.39
72772;SHT30;60894;42.544;1.516;2023-06-26T11:29:32;30.13;30.09
72772;SHT30;60894;42.544;1.516;2023-06-26T11:32:03;30.01;30.25
72772;SHT30;60894;42.544;1.516;2023-06-26T11:34:32;29.86;30.89
72772;SHT30;60894;42.544;1.516;2023-06-26T11:37:01;29.62;30.92
72772;SHT30;60894;42.544;1.516;2023-06-26T11:39:29;29.28;31.07
72772;SHT30;60894;42.544;1.516;2023-06-26T11:41:56;29.34;31.79
72772;SHT30;60894;42.544;1.516;2023-06-26T11:44:23;29.50;31.17
72772;SHT30;60894;42.544;1.516;2023-06-26T11:46:54;29.53;31.47
72772;SHT30;60894;42.544;1.516;2023-06-26T11:49:22;29.21;31.36
72772;SHT30;60894;42.544;1.516;2023-06-26T11:51:53;29.06;32.35
72772;SHT30;60894;42.544;1.516;2023-06-26T11:54:26;28.89;32.59
72772;SHT30;60894;42.544;1.516;2023-06-26T11:56:58;28.87;33.04
72772;SHT30;60894;42.544;1.516;2023-06-26T11:59:33;28.83;33.16
72772;SHT30;60894;42.544;1.516;2023-06-26T12:02:04;28.83;33.18
72772;SHT30;60894;42.544;1.516;2023-06-26T12:04:31;28.76;33.88
72772;SHT30;60894;42.544;1.516;2023-06-26T12:06:59;29.30;33.45
72772;SHT30;60894;42.544;1.516;2023-06-26T12:09:31;29.92;33.08
72772;SHT30;60894;42.544;1.516;2023-06-26T12:11:59;30.39;32.44
72772;SHT30;60894;42.544;1.516;2023-06-26T12:14:27;30.63;31.43
72772;SHT30;60894;42.544;1.516;2023-06-26T12:16:54;30.60;31.61
72772;SHT30;60894;42.544;1.516;2023-06-26T12:19:24;30.66;31.46
72772;SHT30;60894;42.544;1.516;2023-06-26T12:21:52;30.66;31.14
72772;SHT30;60894;42.544;1.516;2023-06-26T12:24:22;30.95;31.57
72772;SHT30;60894;42.544;1.516;2023-06-26T12:26:52;30.61;31.78
72772;SHT30;60894;42.544;1.516;2023-06-26T12:29:29;30.54;32.32
72772;SHT30;60894;42.544;1.516;2023-06-26T12:31:56;30.97;31.82
72772;SHT30;60894;42.544;1.516;2023-06-26T12:34:27;30.84;32.57
72772;SHT30;60894;42.544;1.516;2023-06-26T12:36:59;30.44;32.80
72772;SHT30;60894;42.544;1.516;2023-06-26T12:39:27;29.99;33.75
72772;SHT30;60894;42.544;1.516;2023-06-26T12:41:57;29.81;33.70
72772;SHT30;60894;42.544;1.516;2023-06-26T12:44:27;29.79;34.31
72772;SHT30;60894;42.544;1.516;2023-06-26T12:46:56;29.58;34.87
72772;SHT30;60894;42.544;1.516;2023-06-26T12:49:34;29.64;34.85
72772;SHT30;60894;42.544;1.516;2023-06-26T12:52:05;29.14;36.13
72772;SHT30;60894;42.544;1.516;2023-06-26T12:54:33;29.04;36.75
72772;SHT30;60894;42.544;1.516;2023-06-26T12:57:02;28.94;36.53
72772;SHT30;60894;42.544;1.516;2023-06-26T12:59:29;28.57;36.84
72772;SHT30;60894;42.544;1.516;2023-06-26T13:01:56;28.49;37.66
72772;SHT30;60894;42.544;1.516;2023-06-26T13:04:23;28.22;37.97
72772;SHT30;60894;42.544;1.516;2023-06-26T13:06:50;28.06;38.30
72772;SHT30;60894;42.544;1.516;2023-06-26T13:09:17;28.02;38.58
72772;SHT30;60894;42.544;1.516;2023-06-26T13:11:44;28.06;38.75
72772;SHT30;60894;42.544;1.516;2023-06-26T13:14:13;28.26;38.71
72772;SHT30;60894;42.544;1.516;2023-06-26T13:16:40;28.90;37.69
72772;SHT30;60894;42.544;1.516;2023-06-26T13:19:07;29.41;36.97
72772;SHT30;60894;42.544;1.516;2023-06-26T13:21:34;29.08;38.26
72772;SHT30;60894;42.544;1.516;2023-06-26T13:24:02;28.84;39.17
72772;SHT30;60894;42.544;1.516;2023-06-26T13:26:30;28.52;40.34
72772;SHT30;60894;42.544;1.516;2023-06-26T13:28:57;28.34;40.82
72772;SHT30;60894;42.544;1.516;2023-06-26T13:31:26;27.93;41.66
72772;SHT30;60894;42.544;1.516;2023-06-26T13:33:56;27.74;42.42
72772;SHT30;60894;42.544;1.516;2023-06-26T13:36:24;27.60;42.98
72772;SHT30;60894;42.544;1.516;2023-06-26T13:38:51;27.47;43.41
72772;SHT30;60894;42.544;1.516;2023-06-26T13:41:21;27.44;43.58
72772;SHT30;60894;42.544;1.516;2023-06-26T13:43:48;27.44;43.99
72772;SHT30;60894;42.544;1.516;2023-06-26T13:46:15;27.46;44.28
72772;SHT30;60894;42.544;1.516;2023-06-26T13:48:44;27.30;44.67
72772;SHT30;60894;42.544;1.516;2023-06-26T13:51:11;27.19;45.09
72772;SHT30;60894;42.544;1.516;2023-06-26T13:53:38;27.17;45.26
72772;SHT30;60894;42.544;1.516;2023-06-26T13:56:05;27.19;45.28
72772;SHT30;60894;42.544;1.516;2023-06-26T13:58:34;27.25;45.44
72772;SHT30;60894;42.544;1.516;2023-06-26T14:01:02;27.26;45.69
72772;SHT30;60894;42.544;1.516;2023-06-26T14:03:29;27.27;45.60
72772;SHT30;60894;42.544;1.516;2023-06-26T14:05:57;27.26;45.87
72772;SHT30;60894;42.544;1.516;2023-06-26T14:08:24;27.25;46.09
72772;SHT30;60894;42.544;1.516;2023-06-26T14:10:51;27.30;45.51
72772;SHT30;60894;42.544;1.516;2023-06-26T14:13:18;27.25;45.87
72772;SHT30;60894;42.544;1.516;2023-06-26T14:15:45;27.29;45.61
72772;SHT30;60894;42.544;1.516;2023-06-26T14:18:12;27.07;46.13
72772;SHT30;60894;42.544;1.516;2023-06-26T14:20:40;27.10;45.47
72772;SHT30;60894;42.544;1.516;2023-06-26T14:23:08;27.16;45.87
72772;SHT30;60894;42.544;1.516;2023-06-26T14:25:35;27.09;46.32
72772;SHT30;60894;42.544;1.516;2023-06-26T14:28:02;26.79;47.34
72772;SHT30;60894;42.544;1.516;2023-06-26T14:30:29;26.89;46.69
72772;SHT30;60894;42.544;1.516;2023-06-26T14:32:56;26.64;47.22
72772;SHT30;60894;42.544;1.516;2023-06-26T14:35:23;26.65;46.83
72772;SHT30;60894;42.544;1.516;2023-06-26T14:37:50;26.85;46.58
72772;SHT30;60894;42.544;1.516;2023-06-26T14:40:19;26.93;47.07
72772;SHT30;60894;42.544;1.516;2023-06-26T14:42:46;27.06;47.05
72772;SHT30;60894;42.544;1.516;2023-06-26T14:45:13;27.29;46.39
72772;SHT30;60894;42.544;1.516;2023-06-26T14:47:39;27.33;46.49
72772;SHT30;60894;42.544;1.516;2023-06-26T14:50:08;27.30;44.02
72772;SHT30;60894;42.544;1.516;2023-06-26T14:52:35;27.32;43.33
72772;SHT30;60894;42.544;1.516;2023-06-26T14:55:02;27.23;42.38
72772;SHT30;60894;42.544;1.516;2023-06-26T14:57:31;26.92;42.17
72772;SHT30;60894;42.544;1.516;2023-06-26T14:59:58;26.51;41.68
72772;SHT30;60894;42.544;1.516;2023-06-26T15:02:25;26.54;40.83
72772;SHT30;60894;42.544;1.516;2023-06-26T15:04:52;26.41;40.41
72772;SHT30;60894;42.544;1.516;2023-06-26T15:07:19;26.33;39.48
72772;SHT30;60894;42.544;1.516;2023-06-26T15:09:46;26.08;39.24
72772;SHT30;60894;42.544;1.516;2023-06-26T15:12:13;25.86;39.23
72772;SHT30;60894;42.544;1.516;2023-06-26T15:14:42;25.80;39.59
72772;SHT30;60894;42.544;1.516;2023-06-26T15:17:09;25.73;38.93
72772;SHT30;60894;42.544;1.516;2023-06-26T15:19:36;25.72;39.08
72772;SHT30;60894;42.544;1.516;2023-06-26T15:22:03;25.72;40.25
72772;SHT30;60894;42.544;1.516;2023-06-26T15:24:30;25.47;39.68
72772;SHT30;60894;42.544;1.516;2023-06-26T15:26:57;25.36;39.54
72772;SHT30;60894;42.544;1.516;2023-06-26T15:29:24;25.19;39.74
72772;SHT30;60894;42.544;1.516;2023-06-26T15:31:53;24.81;40.58
72772;SHT30;60894;42.544;1.516;2023-06-26T15:34:20;24.61;41.46
72772;SHT30;60894;42.544;1.516;2023-06-26T15:36:47;24.44;42.49